createdAt,value
2017-05-23T00:02:01.087Z,10.26
2017-05-23T00:04:27.767Z,10.48
2017-05-23T00:06:54.495Z,10.48
2017-05-23T00:09:21.196Z,9.98
2017-05-23T00:11:47.882Z,9.86
2017-05-23T00:14:14.571Z,11.04
2017-05-23T00:16:41.251Z,10.74
2017-05-23T00:19:07.968Z,9.46
2017-05-23T00:21:34.803Z,10.46
2017-05-23T00:24:01.504Z,10.54
2017-05-23T00:26:28.203Z,10.52
2017-05-23T00:28:54.888Z,10.18
2017-05-23T00:31:21.602Z,11.50
2017-05-23T00:33:48.295Z,10.62
2017-05-23T00:36:14.975Z,10.22
2017-05-23T00:38:41.672Z,11.28
2017-05-23T00:41:08.367Z,10.62
2017-05-23T00:43:36.070Z,11.08
2017-05-23T00:46:02.768Z,11.26
2017-05-23T00:48:29.459Z,10.94
2017-05-23T00:50:56.159Z,11.82
2017-05-23T00:53:22.908Z,11.34
2017-05-23T00:55:49.622Z,11.06
2017-05-23T00:58:16.311Z,11.16
2017-05-23T01:00:43.003Z,11.28
2017-05-23T01:03:09.700Z,11.56
2017-05-23T01:05:36.387Z,12.38
2017-05-23T01:08:03.093Z,11.48
2017-05-23T01:10:29.791Z,12.82
2017-05-23T01:12:56.483Z,11.34
2017-05-23T01:15:23.183Z,12.40
2017-05-23T01:17:49.886Z,11.48
2017-05-23T01:20:16.659Z,11.00
2017-05-23T01:22:43.343Z,13.90
2017-05-23T01:25:10.048Z,12.82
2017-05-23T01:27:36.739Z,11.60
2017-05-23T01:30:03.431Z,12.62
2017-05-23T01:32:30.152Z,11.74
2017-05-23T01:34:56.837Z,12.06
2017-05-23T01:37:23.532Z,12.06
2017-05-23T01:39:50.235Z,12.82
2017-05-23T01:42:16.932Z,11.78
2017-05-23T01:44:43.628Z,12.88
2017-05-23T01:47:10.347Z,12.00
2017-05-23T01:49:37.026Z,11.80
2017-05-23T01:52:03.715Z,13.18
2017-05-23T01:54:30.417Z,13.02
2017-05-23T01:59:30.475Z,11.68
2017-05-23T02:01:57.168Z,12.28
2017-05-23T02:04:23.867Z,12.98
2017-05-23T02:06:50.584Z,13.86
2017-05-23T02:09:17.284Z,13.50
2017-05-23T02:11:43.979Z,12.40
2017-05-23T02:14:10.684Z,13.64
2017-05-23T02:16:37.375Z,13.72
2017-05-23T02:19:04.099Z,12.88
2017-05-23T02:21:30.794Z,13.54
2017-05-23T02:23:57.500Z,13.98
2017-05-23T02:26:24.200Z,12.74
2017-05-23T02:28:50.895Z,13.06
2017-05-23T02:31:17.595Z,13.98
2017-05-23T02:33:44.286Z,13.22
2017-05-23T02:36:10.971Z,13.68
2017-05-23T02:38:37.664Z,13.24
2017-05-23T02:41:04.359Z,14.36
2017-05-23T02:43:31.346Z,13.74
2017-05-23T02:45:58.050Z,14.78
2017-05-23T02:48:24.747Z,14.66
2017-05-23T02:50:51.439Z,13.66
2017-05-23T02:53:18.133Z,14.24
2017-05-23T02:55:45.197Z,13.76
2017-05-23T02:58:11.932Z,14.32
2017-05-23T03:00:38.635Z,13.42
2017-05-23T03:03:05.326Z,14.44
2017-05-23T03:05:32.235Z,14.10
2017-05-23T03:07:59.029Z,14.76
2017-05-23T03:10:25.723Z,13.56
2017-05-23T03:12:52.402Z,13.60
2017-05-23T03:15:19.100Z,13.08
2017-05-23T03:17:45.825Z,14.06
2017-05-23T03:20:12.522Z,14.26
2017-05-23T03:22:39.255Z,13.26
2017-05-23T03:25:05.968Z,13.56
2017-05-23T03:27:32.679Z,14.24
2017-05-23T03:29:59.380Z,13.68
2017-05-23T03:32:26.095Z,12.90
2017-05-23T03:34:52.779Z,13.64
2017-05-23T03:37:19.480Z,15.72
2017-05-23T03:39:46.183Z,15.32
2017-05-23T03:42:12.874Z,14.70
2017-05-23T03:44:39.574Z,14.08
2017-05-23T03:47:06.299Z,15.24
2017-05-23T03:49:33.001Z,14.60
2017-05-23T03:51:59.711Z,14.14
2017-05-23T03:54:26.399Z,14.16
2017-05-23T03:56:53.120Z,13.72
2017-05-23T03:59:19.806Z,13.64
2017-05-23T04:01:46.487Z,13.74
2017-05-23T04:04:13.635Z,14.66
2017-05-23T04:06:40.329Z,15.18
2017-05-23T04:09:07.047Z,15.00
2017-05-23T04:11:33.730Z,14.88
2017-05-23T04:14:00.418Z,14.58
2017-05-23T04:16:27.111Z,15.82
2017-05-23T04:18:53.802Z,14.34
2017-05-23T04:21:20.511Z,14.90
2017-05-23T04:23:47.199Z,15.04
2017-05-23T04:26:14.177Z,14.88
2017-05-23T04:28:40.895Z,15.30
2017-05-23T04:31:07.620Z,15.86
2017-05-23T04:33:34.313Z,15.72
2017-05-23T04:36:01.028Z,14.96
2017-05-23T04:38:27.721Z,13.52
2017-05-23T04:40:54.419Z,13.86
2017-05-23T04:43:21.131Z,14.18
2017-05-23T04:45:47.819Z,14.62
2017-05-23T04:48:14.539Z,13.12
2017-05-23T04:50:41.219Z,12.84
2017-05-23T04:53:07.915Z,11.52
2017-05-23T04:55:34.627Z,11.98
2017-05-23T04:58:01.355Z,11.72
2017-05-23T05:00:28.049Z,11.84
2017-05-23T05:02:54.762Z,12.38
2017-05-23T05:05:21.455Z,11.44
2017-05-23T05:07:48.165Z,12.58
2017-05-23T05:10:14.889Z,13.08
2017-05-23T05:12:41.574Z,11.80
2017-05-23T05:15:08.267Z,10.82
2017-05-23T05:17:34.971Z,9.92
2017-05-23T05:20:01.671Z,10.86
2017-05-23T05:22:28.369Z,10.94
2017-05-23T05:24:55.109Z,10.96
2017-05-23T05:27:21.798Z,11.78
2017-05-23T05:29:48.514Z,10.46
2017-05-23T05:32:15.222Z,10.34
2017-05-23T05:34:41.928Z,10.98
2017-05-23T05:37:08.635Z,10.98
2017-05-23T05:39:35.337Z,10.70
2017-05-23T05:42:02.039Z,10.64
2017-05-23T05:44:28.758Z,10.00
2017-05-23T05:46:55.455Z,9.36
2017-05-23T05:49:22.152Z,10.70
2017-05-23T05:51:48.849Z,10.46
2017-05-23T05:54:15.532Z,10.08
2017-05-23T05:56:42.232Z,10.90
2017-05-23T05:59:08.915Z,9.26
2017-05-23T06:01:35.851Z,9.66
2017-05-23T06:04:02.539Z,10.62
2017-05-23T06:06:29.243Z,10.44
2017-05-23T06:08:55.931Z,9.80
2017-05-23T06:11:22.614Z,9.18
2017-05-23T06:13:55.500Z,9.58
2017-05-23T06:16:22.192Z,9.66
2017-05-23T06:18:48.879Z,9.44
2017-05-23T06:21:15.595Z,9.56
2017-05-23T06:23:43.088Z,8.86
2017-05-23T06:26:09.770Z,9.64
2017-05-23T06:28:36.492Z,9.94
2017-05-23T06:31:03.187Z,9.40
2017-05-23T06:33:29.887Z,9.52
2017-05-23T06:35:57.902Z,9.10
2017-05-23T06:38:24.600Z,9.58
2017-05-23T06:40:51.300Z,9.28
2017-05-23T06:43:18.018Z,9.64
2017-05-23T06:45:44.980Z,9.50
2017-05-23T06:48:11.673Z,9.36
2017-05-23T06:50:38.400Z,10.14
2017-05-23T06:53:05.411Z,9.14
2017-05-23T06:55:32.103Z,9.20
2017-05-23T06:57:58.811Z,7.74
2017-05-23T07:00:25.498Z,7.10
2017-05-23T07:02:52.198Z,7.38
2017-05-23T07:05:18.927Z,7.46
2017-05-23T07:07:45.662Z,7.10
2017-05-23T07:10:12.347Z,7.76
2017-05-23T07:12:39.238Z,7.60
2017-05-23T07:15:05.943Z,7.52
2017-05-23T07:17:32.622Z,7.00
2017-05-23T07:19:59.363Z,6.90
2017-05-23T07:22:26.056Z,7.32
2017-05-23T07:24:52.745Z,6.66
2017-05-23T07:27:20.493Z,6.64
2017-05-23T07:29:47.180Z,7.56
2017-05-23T07:32:13.874Z,7.74
2017-05-23T07:34:40.616Z,6.82
2017-05-23T07:37:07.468Z,6.34
2017-05-23T07:39:34.163Z,7.26
2017-05-23T07:42:00.887Z,7.92
2017-05-23T07:44:27.575Z,8.16
2017-05-23T07:46:54.277Z,6.82
2017-05-23T07:49:20.992Z,6.82
2017-05-23T07:51:47.679Z,7.72
2017-05-23T07:54:14.371Z,6.90
2017-05-23T07:56:41.096Z,6.78
2017-05-23T07:59:07.783Z,6.98
2017-05-23T08:01:34.474Z,7.44
2017-05-23T08:04:01.187Z,6.60
2017-05-23T08:06:27.880Z,7.24
2017-05-23T08:08:54.579Z,8.00
2017-05-23T08:11:28.228Z,7.38
2017-05-23T08:13:54.916Z,7.18
2017-05-23T08:16:21.606Z,7.60
2017-05-23T08:18:48.324Z,8.02
2017-05-23T08:21:15.020Z,8.20
2017-05-23T08:23:41.712Z,7.32
2017-05-23T08:26:08.450Z,8.34
2017-05-23T08:28:35.154Z,7.78
2017-05-23T08:31:01.847Z,8.42
2017-05-23T08:33:28.563Z,8.96
2017-05-23T08:35:55.252Z,9.10
2017-05-23T08:38:21.944Z,8.54
2017-05-23T08:40:48.664Z,7.82
2017-05-23T08:43:15.357Z,8.62
2017-05-23T08:45:42.039Z,7.66
2017-05-23T08:48:08.760Z,7.66
2017-05-23T08:50:35.450Z,8.94
2017-05-23T08:53:02.144Z,7.22
2017-05-23T08:55:28.864Z,10.82
2017-05-23T08:57:55.555Z,8.70
2017-05-23T09:00:22.511Z,8.86
2017-05-23T09:02:49.248Z,9.54
2017-05-23T09:05:15.944Z,8.92
2017-05-23T09:07:42.640Z,8.62
2017-05-23T09:10:09.355Z,9.46
2017-05-23T09:12:36.056Z,7.84
2017-05-23T09:15:02.747Z,8.90
2017-05-23T09:17:29.466Z,8.06
2017-05-23T09:19:56.142Z,7.74
2017-05-23T09:22:22.876Z,8.82
2017-05-23T09:24:55.855Z,8.94
2017-05-23T09:27:28.758Z,9.74
2017-05-23T09:29:55.462Z,9.48
2017-05-23T09:32:22.151Z,9.02
2017-05-23T09:34:49.214Z,8.14
2017-05-23T09:37:15.928Z,9.32
2017-05-23T09:39:42.610Z,9.88
2017-05-23T09:42:08.575Z,9.42
2017-05-23T09:44:42.098Z,9.50
2017-05-23T09:47:08.798Z,9.74
2017-05-23T09:49:35.498Z,9.96
2017-05-23T09:52:02.281Z,9.44
2017-05-23T09:54:28.962Z,10.48
2017-05-23T09:56:55.656Z,9.88
2017-05-23T09:59:22.650Z,9.12
2017-05-23T10:01:49.348Z,9.56
2017-05-23T10:04:16.319Z,8.92
2017-05-23T10:06:43.269Z,8.28
2017-05-23T10:09:09.966Z,9.20
2017-05-23T10:11:36.811Z,9.98
2017-05-23T10:14:03.536Z,9.90
2017-05-23T10:16:30.304Z,10.52
2017-05-23T10:18:56.990Z,9.70
2017-05-23T10:21:23.784Z,10.22
2017-05-23T10:23:50.505Z,11.06
2017-05-23T10:26:17.231Z,12.00
2017-05-23T10:28:43.951Z,11.36
2017-05-23T10:31:10.697Z,11.86
2017-05-23T10:33:37.395Z,11.10
2017-05-23T10:36:04.367Z,10.78
2017-05-23T10:38:31.075Z,11.82
2017-05-23T10:40:57.884Z,11.96
2017-05-23T10:43:24.689Z,12.04
2017-05-23T10:45:51.371Z,10.98
2017-05-23T10:48:18.072Z,11.62
2017-05-23T10:50:44.792Z,13.32
2017-05-23T10:53:11.483Z,13.80
2017-05-23T10:55:38.179Z,11.28
2017-05-23T10:58:04.911Z,12.06
2017-05-23T11:00:31.604Z,12.04
2017-05-23T11:02:58.292Z,12.00
2017-05-23T11:05:25.019Z,12.48
2017-05-23T11:07:51.718Z,13.36
2017-05-23T11:10:18.403Z,14.10
2017-05-23T11:12:45.226Z,15.92
2017-05-23T11:15:11.966Z,14.22
2017-05-23T11:17:38.650Z,15.50
2017-05-23T11:20:05.369Z,14.40
2017-05-23T11:22:31.334Z,14.86
2017-05-23T11:24:58.051Z,14.42
2017-05-23T11:27:24.780Z,14.18
2017-05-23T11:29:51.500Z,12.60
2017-05-23T11:32:18.187Z,9.74
2017-05-23T11:34:44.909Z,7.86
2017-05-23T11:37:11.607Z,5.02
2017-05-23T11:39:38.311Z,5.62
2017-05-23T11:42:05.032Z,5.72
2017-05-23T11:44:31.730Z,6.14
2017-05-23T11:46:58.427Z,6.16
2017-05-23T11:49:25.148Z,4.74
2017-05-23T11:51:51.834Z,5.26
2017-05-23T11:54:18.524Z,5.06
2017-05-23T11:56:45.248Z,5.94
2017-05-23T11:59:11.939Z,5.36
2017-05-23T12:01:38.647Z,5.50
2017-05-23T12:04:05.571Z,6.88
2017-05-23T12:06:32.260Z,5.42
2017-05-23T12:08:58.957Z,6.30
2017-05-23T12:11:25.673Z,6.20
2017-05-23T12:13:52.368Z,6.50
2017-05-23T12:16:19.061Z,7.32
2017-05-23T12:18:45.810Z,7.58
2017-05-23T12:21:12.515Z,7.58
2017-05-23T12:23:39.207Z,7.80
2017-05-23T12:26:05.928Z,9.90
2017-05-23T12:28:32.626Z,9.00
2017-05-23T12:30:59.315Z,8.00
2017-05-23T12:33:26.025Z,8.74
2017-05-23T12:35:52.727Z,8.44
2017-05-23T12:38:19.415Z,7.50
2017-05-23T12:40:46.142Z,8.58
2017-05-23T12:43:13.210Z,8.30
2017-05-23T12:45:39.908Z,8.16
2017-05-23T12:48:06.625Z,10.12
2017-05-23T12:50:33.307Z,10.56
2017-05-23T12:53:00.004Z,8.38
2017-05-23T12:55:26.974Z,6.38
2017-05-23T12:57:53.664Z,6.86
2017-05-23T13:00:20.575Z,5.84
2017-05-23T13:02:47.324Z,6.18
2017-05-23T13:05:14.017Z,6.46
2017-05-23T13:07:40.714Z,6.94
2017-05-23T13:10:07.435Z,8.34
2017-05-23T13:12:34.115Z,8.12
2017-05-23T13:15:00.807Z,9.10
2017-05-23T13:17:27.524Z,9.02
2017-05-23T13:19:54.219Z,8.88
2017-05-23T13:22:20.916Z,7.96
2017-05-23T13:24:47.644Z,9.14
2017-05-23T13:27:14.345Z,6.80
2017-05-23T13:29:41.040Z,5.52
2017-05-23T13:32:07.761Z,5.82
2017-05-23T13:34:34.452Z,5.42
2017-05-23T13:37:01.147Z,5.08
2017-05-23T13:39:27.872Z,3.68
2017-05-23T13:41:54.601Z,3.30
2017-05-23T13:44:21.634Z,3.40
2017-05-23T13:46:48.355Z,3.66
2017-05-23T13:49:15.045Z,4.88
2017-05-23T13:51:41.742Z,4.54
2017-05-23T13:54:09.450Z,4.20
2017-05-23T13:56:36.270Z,4.32
2017-05-23T13:59:02.972Z,4.30
2017-05-23T14:01:29.690Z,4.08
2017-05-23T14:03:56.374Z,4.40
2017-05-23T14:06:23.088Z,4.24
2017-05-23T14:08:49.822Z,5.56
2017-05-23T14:11:16.514Z,3.52
2017-05-23T14:13:43.207Z,3.94
2017-05-23T14:16:09.911Z,3.52
2017-05-23T14:18:36.606Z,2.88
2017-05-23T14:21:03.298Z,3.84
2017-05-23T14:23:30.020Z,2.90
2017-05-23T14:25:56.706Z,3.52
2017-05-23T14:28:23.397Z,3.20
2017-05-23T14:30:50.122Z,3.68
2017-05-23T14:33:16.843Z,5.36
2017-05-23T14:35:43.532Z,7.44
2017-05-23T14:38:10.252Z,4.60
2017-05-23T14:40:36.938Z,4.32
2017-05-23T14:43:03.633Z,5.24
2017-05-23T14:45:30.358Z,8.22
2017-05-23T14:47:57.052Z,14.20
2017-05-23T14:50:23.754Z,18.92
2017-05-23T14:52:50.467Z,20.16
2017-05-23T14:55:17.167Z,26.00
2017-05-23T14:57:43.852Z,26.80
2017-05-23T15:00:10.558Z,27.06
2017-05-23T15:02:37.253Z,27.76
2017-05-23T15:05:03.943Z,24.66
2017-05-23T15:07:30.658Z,23.64
2017-05-23T15:09:57.348Z,18.80
2017-05-23T15:12:24.027Z,15.76
2017-05-23T15:14:50.744Z,15.28
2017-05-23T15:17:17.438Z,14.20
2017-05-23T15:19:44.121Z,12.34
2017-05-23T15:22:17.980Z,10.42
2017-05-23T15:24:44.684Z,10.14
2017-05-23T15:27:11.373Z,9.62
2017-05-23T15:29:38.098Z,9.24
2017-05-23T15:32:04.790Z,11.56
2017-05-23T15:34:31.492Z,8.12
2017-05-23T15:36:58.199Z,11.08
2017-05-23T15:39:25.203Z,8.86
2017-05-23T15:41:51.916Z,6.88
2017-05-23T15:44:18.639Z,6.62
2017-05-23T15:46:45.335Z,6.34
2017-05-23T15:49:12.023Z,6.56
2017-05-23T15:51:39.014Z,6.02
2017-05-23T15:54:05.695Z,5.42
2017-05-23T15:56:32.392Z,6.74
2017-05-23T15:58:59.198Z,7.34
2017-05-23T16:01:25.887Z,4.62
2017-05-23T16:03:52.587Z,5.16
2017-05-23T16:06:19.307Z,6.32
2017-05-23T16:08:46.019Z,4.72
2017-05-23T16:11:12.714Z,4.14
2017-05-23T16:13:39.450Z,4.94
2017-05-23T16:16:06.145Z,4.64
2017-05-23T16:18:32.835Z,4.06
2017-05-23T16:20:59.556Z,6.02
2017-05-23T16:23:26.268Z,7.46
2017-05-23T16:25:52.959Z,4.92
2017-05-23T16:28:19.688Z,6.60
2017-05-23T16:30:46.379Z,5.62
2017-05-23T16:33:13.076Z,6.04
2017-05-23T16:35:39.795Z,4.88
2017-05-23T16:38:06.519Z,6.24
2017-05-23T16:40:33.534Z,6.78
2017-05-23T16:43:00.267Z,4.12
2017-05-23T16:45:26.953Z,9.16
2017-05-23T16:47:53.665Z,3.68
2017-05-23T16:50:20.412Z,5.12
2017-05-23T16:52:47.345Z,3.78
2017-05-23T16:55:14.055Z,3.96
2017-05-23T16:57:40.771Z,3.44
2017-05-23T17:00:07.529Z,3.78
2017-05-23T17:02:34.227Z,4.02
2017-05-23T17:05:00.949Z,3.32
2017-05-23T17:07:27.656Z,2.86
2017-05-23T17:09:54.356Z,3.60
2017-05-23T17:12:21.095Z,5.52
2017-05-23T17:14:47.791Z,2.20
2017-05-23T17:17:14.487Z,3.32
2017-05-23T17:19:41.218Z,8.66
2017-05-23T17:22:07.942Z,3.14
2017-05-23T17:24:34.858Z,2.74
2017-05-23T17:27:01.599Z,2.62
2017-05-23T17:29:28.636Z,1.94
2017-05-23T17:31:55.331Z,1.34
2017-05-23T17:34:22.058Z,1.64
2017-05-23T17:36:48.813Z,4.10
2017-05-23T17:39:15.602Z,2.44
2017-05-23T17:41:42.987Z,6.08
2017-05-23T17:44:10.242Z,4.26
2017-05-23T17:46:37.012Z,3.38
2017-05-23T17:49:03.896Z,1.84
2017-05-23T17:51:30.840Z,5.62
2017-05-23T17:53:57.575Z,2.24
2017-05-23T17:56:24.307Z,2.74
2017-05-23T18:01:42.511Z,2.44
2017-05-23T18:04:09.217Z,1.70
2017-05-23T18:06:35.931Z,2.38
2017-05-23T18:09:02.773Z,2.46
2017-05-23T18:11:29.608Z,1.44
2017-05-23T18:13:56.609Z,4.60
2017-05-23T18:16:23.858Z,3.14
2017-05-23T18:18:50.696Z,1.72
2017-05-23T18:21:17.413Z,1.28
2017-05-23T18:23:44.161Z,2.00
2017-05-23T18:26:10.880Z,2.36
2017-05-23T18:28:37.901Z,3.96
2017-05-23T18:31:04.661Z,2.08
2017-05-23T18:33:31.390Z,4.54
2017-05-23T18:35:58.111Z,3.56
2017-05-23T18:38:24.861Z,2.28
2017-05-23T18:40:51.765Z,2.66
2017-05-23T18:43:18.460Z,2.80
2017-05-23T18:45:45.463Z,2.78
2017-05-23T18:48:12.155Z,5.62
2017-05-23T18:50:38.869Z,2.34
2017-05-23T18:53:05.616Z,3.12
2017-05-23T18:55:32.313Z,2.10
2017-05-23T18:57:59.017Z,1.70
2017-05-23T19:00:25.744Z,2.90
2017-05-23T19:02:52.449Z,2.06
2017-05-23T19:05:19.153Z,3.18
2017-05-23T19:07:45.896Z,2.84
2017-05-23T19:10:12.608Z,4.40
2017-05-23T19:12:39.300Z,4.20
2017-05-23T19:15:06.023Z,4.20
2017-05-23T19:17:32.712Z,1.28
2017-05-23T19:19:59.413Z,1.64
2017-05-23T19:22:26.361Z,3.90
2017-05-23T19:27:44.195Z,1.48
2017-05-23T19:30:10.936Z,1.14
2017-05-23T19:32:37.647Z,4.62
2017-05-23T19:35:04.380Z,5.54
2017-05-23T19:37:31.116Z,4.66
2017-05-23T19:39:57.980Z,1.78
2017-05-23T19:42:24.719Z,3.40
2017-05-23T19:44:51.452Z,1.80
2017-05-23T19:47:18.179Z,3.08
2017-05-23T19:49:44.884Z,2.40
2017-05-23T19:52:11.644Z,2.32
2017-05-23T19:54:38.392Z,4.72
2017-05-23T19:57:05.107Z,4.98
2017-05-23T19:59:31.844Z,2.94
2017-05-23T20:01:58.559Z,1.52
2017-05-23T20:04:25.288Z,3.70
2017-05-23T20:06:52.038Z,2.20
2017-05-23T20:09:18.748Z,4.62
2017-05-23T20:11:45.462Z,4.10
2017-05-23T20:14:12.175Z,4.48
2017-05-23T20:16:38.875Z,3.28
2017-05-23T20:19:05.578Z,3.80
2017-05-23T20:21:32.302Z,1.82
2017-05-23T20:23:59.026Z,6.16
2017-05-23T20:26:25.738Z,2.62
2017-05-23T20:28:52.663Z,6.22
2017-05-23T20:31:19.415Z,4.86
2017-05-23T20:33:46.110Z,9.70
2017-05-23T20:36:12.819Z,3.64
2017-05-23T20:38:39.764Z,4.28
2017-05-23T20:41:06.491Z,4.66
2017-05-23T20:43:33.205Z,4.68
2017-05-23T20:45:59.923Z,3.86
2017-05-23T20:48:26.647Z,3.30
2017-05-23T20:50:53.359Z,3.36
2017-05-23T20:53:20.092Z,4.04
2017-05-23T20:55:46.815Z,6.46
2017-05-23T20:58:13.519Z,6.32
2017-05-23T21:00:40.251Z,6.00
2017-05-23T21:03:06.980Z,2.50
2017-05-23T21:05:33.708Z,5.46
2017-05-23T21:08:00.455Z,4.42
2017-05-23T21:10:27.156Z,2.44
2017-05-23T21:12:53.868Z,3.90
2017-05-23T21:15:20.615Z,3.66
2017-05-23T21:17:47.348Z,6.50
2017-05-23T21:20:14.070Z,3.74
2017-05-23T21:22:40.821Z,4.40
2017-05-23T21:25:07.535Z,4.26
2017-05-23T21:27:34.261Z,2.96
2017-05-23T21:30:01.014Z,5.90
2017-05-23T21:32:27.768Z,4.64
2017-05-23T21:34:53.995Z,6.74
2017-05-23T21:37:20.724Z,2.80
2017-05-23T21:39:47.448Z,5.64
2017-05-23T21:42:14.181Z,4.06
2017-05-23T21:44:40.967Z,6.12
2017-05-23T21:47:07.686Z,3.32
2017-05-23T21:49:34.404Z,4.66
2017-05-23T21:52:01.132Z,4.60
2017-05-23T21:54:27.845Z,3.50
2017-05-23T21:56:54.550Z,4.44
2017-05-23T21:59:21.291Z,4.60
2017-05-23T22:01:48.000Z,6.70
2017-05-23T22:04:14.885Z,3.80
2017-05-23T22:06:41.943Z,4.32
2017-05-23T22:09:08.695Z,2.66
2017-05-23T22:11:35.400Z,4.06
2017-05-23T22:14:02.169Z,7.36
2017-05-23T22:16:28.891Z,4.46
2017-05-23T22:18:54.876Z,6.60
2017-05-23T22:21:21.619Z,6.16
2017-05-23T22:23:48.329Z,2.44
2017-05-23T22:26:15.053Z,9.10
2017-05-23T22:28:41.807Z,5.94
2017-05-23T22:31:08.520Z,4.48
2017-05-23T22:33:35.246Z,5.22
2017-05-23T22:36:01.983Z,2.72
2017-05-23T22:38:28.732Z,3.98
2017-05-23T22:40:55.459Z,3.74
2017-05-23T22:43:22.180Z,11.30
2017-05-23T22:45:48.887Z,6.34
2017-05-23T22:48:15.578Z,4.12
2017-05-23T22:50:42.300Z,6.92
2017-05-23T22:53:09.046Z,2.76
2017-05-23T22:55:35.751Z,4.02
2017-05-23T22:58:02.472Z,7.14
2017-05-23T23:00:29.166Z,7.96
2017-05-23T23:02:55.865Z,4.06
2017-05-23T23:05:22.574Z,3.00
2017-05-23T23:07:49.280Z,7.28
2017-05-23T23:10:16.293Z,4.72
2017-05-23T23:12:43.019Z,4.66
2017-05-23T23:15:09.728Z,3.02
2017-05-23T23:17:36.464Z,3.06
2017-05-23T23:20:03.204Z,6.18
2017-05-23T23:22:29.899Z,3.24
2017-05-23T23:24:56.616Z,4.86
2017-05-23T23:27:23.352Z,3.04
2017-05-23T23:29:50.060Z,7.24
2017-05-23T23:32:16.772Z,6.26
2017-05-23T23:34:43.519Z,5.42
2017-05-23T23:37:10.215Z,3.48
2017-05-23T23:39:36.959Z,6.10
2017-05-23T23:42:03.716Z,4.24
2017-05-23T23:44:30.420Z,4.50
2017-05-23T23:46:57.115Z,9.06
2017-05-23T23:49:23.826Z,1.78
2017-05-23T23:51:50.518Z,4.14
2017-05-23T23:54:17.215Z,3.80
2017-05-23T23:56:43.930Z,3.88
2017-05-23T23:59:10.641Z,2.98
